Archival Weather

Chicago O'Hare International

Chicago, Illinois (KORD)

Report from: Tuesday, December 13, 2022 3:51 PM CST
Current time: Friday, June 21, 2024 4:12 AM CDT

Current weather – Weather history – Daily summaries
Weather forecast

Temperature2.8°C (37.0°F)
Wind chill-2.4°C (27.7°F)
Dew point-1.7°C (28.9°F)
Winds 14 kts (7.2 m/s, 16.1 mph) East (100°)
Visibility10 mi. (16.1 km)
Clouds Few clouds 1,900 ft. (579 m)
Ceiling: Broken clouds 13,000 ft. (3,962 m)
Overcast 30,000 ft. (9,144 m)
Altimeter30.08 in.Hg (1019 mB)
Relative humidity72 %
Density altitude-1,604 ft. (-489 m)
Sea-level pressure101.9 kPa (1019 mB, 30.10 in.Hg)
Remarks Automated weather observing station with precipitation discriminator
Flight conditions Visual Meteorological Conditions
Raw dataKORD 132151Z 10014KT 10SM FEW019 BKN130 OVC300 03/M02 A3008 RMK AO2 SLP193 T00281017
An error has occurred. This application may no longer respond until reloaded. Reload 🗙